Terminal Aerodrome Forecast
Issued by NWS Lake Charles, LA

Home | Current Version | Previous Version | Text Only | Print | Product List | Glossary On
Versions: 1 2 3 4 5 6 7 8 9 10 11 12 13 14
000
FTUS44 KLCH 271100
TAFLCH
TAF
KLCH 271136Z 2712/2812 13007KT 4SM BR VCSH OVC002
     FM271400 14007KT 5SM BR VCSH OVC003
      TEMPO 2714/2718 2SM SHRA BR
     FM271800 18008KT 6SM -TSRA BR OVC007CB
     FM280400 33011KT 4SM -RA BR OVC003=

USA.gov is the U.S. government's official web portal to all federal, state and local government web resources and services.